SAWU/RZA METAR and TAF weather

Enter ICAO airport designator
Station Type Date Time Source
SAWU METAR 2021/07/25 21:21 UTC NOAA

SAWU 252121Z 25025G35KT 9999 VCSH BKN007 SCT100 03/M01 Q1010 RE-RA


Station Type Date Time Source
SAWU Decoded METAR 2021/07/25 21:21 UTC NOAA

Santa Cruz Aerodrome, Argentina (SAWU) 50-01S 068-34W 111M
Jul 25, 2021 - 05:21 PM EDT / 2021.07.25 2121 UTC
Wind: from the WSW (250 degrees) at 29 MPH (25 KT) gusting to 40 MPH (35 KT):0
Visibility: greater than 7 mile(s):0
Sky conditions: mostly cloudy
Weather: showers in the vicinity
Temperature: 37 F (3 C)
Dew Point: 30 F (-1 C)
Relative Humidity: 74%
Pressure (altimeter): 29.83 in. Hg (1010 hPa)
ob: SAWU 252121Z 25025G35KT 9999 VCSH BKN007 SCT100 03/M01 Q1010 RE-RA
cycle: 21

Station Type Date Time Source
SAWU TAF UTC NOAA

Error!

Example: see airport list